Time;durP1;ratioP1;P1;durP2;ratioP2;P2;SDS_P1;SDS_P2;PMS_P1;PMS_P2;Temp;Humidity;BMP_temperature;BMP_pressure;BME280_temperature;BME280_humidity;BME280_pressure;Samples;Min_cycle;Max_cycle;Signal;HPM_P1;HPM_P2
2023/07/09 00:00:23;;;;;;;1.00;0.90;;;21.80;99.90;;;;;;4848385;29;20064;-96
2023/07/09 00:03:14;;;;;;;0.95;0.93;;;21.90;99.90;;;;;;4862773;29;20030;-88
2023/07/09 00:05:44;;;;;;;0.75;0.70;;;22.20;99.90;;;;;;5094113;23;20038;-87
2023/07/09 00:08:38;;;;;;;0.95;0.93;;;21.20;99.90;;;;;;4864700;29;20097;-96
2023/07/09 00:11:09;;;;;;;1.13;0.95;;;21.20;1.00;;;;;;4833822;29;20065;-96
2023/07/09 00:16:29;;;;;;;1.38;0.75;;;21.00;1.00;;;;;;4849081;29;20112;-95
2023/07/09 00:18:58;;;;;;;1.10;0.80;;;21.70;1.00;;;;;;4848512;29;20118;-94
2023/07/09 00:21:38;;;;;;;0.82;0.82;;;21.40;1.00;;;;;;4834532;29;20045;-94
2023/07/09 00:24:04;;;;;;;0.77;0.77;;;21.40;1.00;;;;;;4881152;23;20064;-90
2023/07/09 00:26:37;;;;;;;1.30;1.27;;;21.70;1.00;;;;;;4897589;23;20081;-93
2023/07/09 00:29:18;;;;;;;0.73;0.73;;;21.50;5.20;;;;;;4863669;29;20034;-92
2023/07/09 00:31:47;;;;;;;0.80;0.80;;;21.40;1.00;;;;;;4865457;29;20049;-87
2023/07/09 00:34:20;;;;;;;0.98;0.90;;;20.90;99.90;;;;;;4851195;29;20058;-96
2023/07/09 00:36:56;;;;;;;0.80;0.80;;;21.80;99.90;;;;;;4837764;29;20034;-87
2023/07/09 00:39:27;;;;;;;1.13;1.02;;;21.10;1.00;;;;;;4879479;24;20068;-88
2023/07/09 00:42:10;;;;;;;1.25;1.15;;;20.90;99.90;;;;;;4854625;29;20080;-94
2023/07/09 00:45:01;;;;;;;1.40;1.30;;;21.20;99.90;;;;;;5495691;24;20034;-96
2023/07/09 00:48:01;;;;;;;0.90;0.82;;;21.40;99.90;;;;;;4867104;29;20058;-96
2023/07/09 00:50:45;;;;;;;1.38;1.08;;;20.90;99.90;;;;;;4869487;29;20095;-96
2023/07/09 00:53:29;;;;;;;1.20;1.08;;;21.00;99.90;;;;;;4928050;24;20057;-96
2023/07/09 00:56:14;;;;;;;1.15;1.05;;;21.00;99.90;;;;;;4867007;29;20057;-96
2023/07/09 00:58:49;;;;;;;1.20;1.10;;;21.60;99.90;;;;;;4852708;29;20030;-90
2023/07/09 01:01:24;;;;;;;1.00;0.93;;;21.60;99.90;;;;;;3355465;24;20226;-86
2023/07/09 01:04:01;;;;;;;1.23;1.17;;;21.00;99.90;;;;;;5378099;24;20046;-86
2023/07/09 01:09:13;;;;;;;2.17;1.30;;;21.60;99.90;;;;;;4866542;29;20038;-88
2023/07/09 01:14:51;;;;;;;0.95;0.90;;;21.60;99.90;;;;;;5780645;23;20334;-91
2023/07/09 01:17:36;;;;;;;1.00;1.00;;;21.20;99.90;;;;;;4881623;29;20057;-96
2023/07/09 01:20:16;;;;;;;1.35;0.85;;;20.70;99.90;;;;;;4883018;29;20053;-93
2023/07/09 01:23:01;;;;;;;1.15;1.08;;;21.60;99.90;;;;;;5005370;23;20034;-84
2023/07/09 01:25:32;;;;;;;1.13;1.02;;;20.80;99.90;;;;;;4925730;24;20037;-93
2023/07/09 01:28:04;;;;;;;0.70;0.70;;;21.00;99.90;;;;;;4899352;24;20068;-96
2023/07/09 01:30:41;;;;;;;1.23;1.08;;;21.50;99.90;;;;;;4946508;24;20095;-96
2023/07/09 01:36:00;;;;;;;0.73;0.67;;;21.40;99.90;;;;;;5412631;23;20032;-84
2023/07/09 01:38:36;;;;;;;0.98;0.93;;;21.40;99.90;;;;;;5114035;23;20053;-92
2023/07/09 01:41:19;;;;;;;1.77;1.02;;;21.50;99.90;;;;;;5196171;24;20056;-89
2023/07/09 01:43:48;;;;;;;1.55;1.30;;;20.50;99.90;;;;;;4869362;29;20097;-93
2023/07/09 01:46:41;;;;;;;1.30;1.10;;;21.40;99.90;;;;;;5309963;23;20039;31
2023/07/09 01:49:14;;;;;;;1.35;1.05;;;20.40;99.90;;;;;;4965441;24;20054;-90
2023/07/09 01:51:47;;;;;;;1.27;1.20;;;21.40;99.90;;;;;;4579921;24;20086;-86
2023/07/09 01:54:12;;;;;;;1.08;0.80;;;21.30;99.90;;;;;;4845884;29;20101;-86
2023/07/09 01:56:38;;;;;;;1.30;1.20;;;21.20;99.90;;;;;;4861917;29;20053;-85
2023/07/09 01:59:04;;;;;;;1.00;1.00;;;21.20;99.90;;;;;;4830647;29;20081;-85
2023/07/09 02:01:33;;;;;;;0.70;0.70;;;21.10;99.90;;;;;;4831341;29;20489;-84
2023/07/09 02:03:59;;;;;;;2.45;1.05;;;21.10;99.90;;;;;;4830471;29;20045;-89
2023/07/09 02:06:25;;;;;;;1.17;1.08;;;21.10;99.90;;;;;;4830937;29;20049;-84
2023/07/09 02:08:50;;;;;;;0.95;0.93;;;21.10;99.90;;;;;;4831045;29;20411;-85
2023/07/09 02:11:16;;;;;;;1.05;0.93;;;21.10;99.90;;;;;;4830767;29;20140;-84
2023/07/09 02:13:42;;;;;;;1.05;1.05;;;21.10;99.90;;;;;;4861867;29;20406;-85
2023/07/09 02:16:08;;;;;;;0.68;0.68;;;21.10;99.90;;;;;;4831030;29;20057;-84
2023/07/09 02:18:34;;;;;;;1.20;1.10;;;21.10;99.90;;;;;;4846304;29;20463;-85
2023/07/09 02:21:00;;;;;;;;;;;21.00;99.90;;;;;;4845839;29;20042;-88
2023/07/09 02:23:27;;;;;;;0.73;0.73;;;21.00;99.90;;;;;;4861187;29;19976;-84
2023/07/09 02:25:53;;;;;;;0.93;0.93;;;21.00;99.90;;;;;;4830602;29;20548;-84
2023/07/09 02:28:19;;;;;;;1.92;1.40;;;21.00;99.90;;;;;;4845810;29;20053;-84
2023/07/09 02:30:44;;;;;;;0.80;0.80;;;20.90;99.90;;;;;;4845993;29;20177;-84
2023/07/09 02:33:10;;;;;;;1.92;1.30;;;20.90;99.90;;;;;;4830439;29;20050;-85
2023/07/09 02:35:36;;;;;;;1.27;1.05;;;20.90;99.90;;;;;;4830366;29;20051;-84
2023/07/09 02:38:03;;;;;;;1.58;1.23;;;20.90;99.90;;;;;;4830272;29;20053;-92
2023/07/09 02:40:29;;;;;;;1.20;1.02;;;20.90;99.90;;;;;;4845747;29;20049;-84
2023/07/09 02:42:54;;;;;;;1.67;1.13;;;20.80;99.90;;;;;;4829839;29;20046;-84
2023/07/09 02:45:21;;;;;;;1.20;1.10;;;20.80;99.90;;;;;;4845518;29;20064;-84
2023/07/09 02:47:47;;;;;;;1.13;1.10;;;20.70;99.90;;;;;;4830505;29;20049;-84
2023/07/09 02:50:13;;;;;;;1.27;0.80;;;20.70;99.90;;;;;;4845216;29;20524;-84
2023/07/09 02:52:39;;;;;;;1.02;0.88;;;20.70;99.90;;;;;;4845339;29;20046;-83
2023/07/09 02:55:05;;;;;;;1.02;1.00;;;20.60;1.00;;;;;;4859949;29;20061;-86
2023/07/09 02:57:31;;;;;;;1.15;1.05;;;20.50;1.00;;;;;;4861107;29;20054;-84
2023/07/09 02:59:56;;;;;;;0.55;0.55;;;20.50;1.00;;;;;;4845626;29;20053;-84
2023/07/09 03:02:22;;;;;;;1.20;1.10;;;20.40;45.70;;;;;;4860338;29;20057;-84
2023/07/09 03:04:48;;;;;;;1.20;0.80;;;20.30;99.90;;;;;;4814432;29;20041;-85
2023/07/09 03:07:14;;;;;;;0.90;0.90;;;20.30;99.90;;;;;;4844868;29;20046;-84
2023/07/09 03:09:39;;;;;;;0.75;0.75;;;20.00;99.90;;;;;;4830327;29;20550;-84
2023/07/09 03:12:06;;;;;;;1.15;1.02;;;20.20;99.90;;;;;;4860488;29;20049;-88
2023/07/09 03:14:33;;;;;;;1.23;1.13;;;20.20;99.90;;;;;;4829942;29;20085;-85
2023/07/09 03:16:58;;;;;;;0.80;0.80;;;20.10;99.90;;;;;;4860213;29;20057;-85
2023/07/09 03:19:24;;;;;;;0.88;0.88;;;20.10;99.90;;;;;;4829162;29;20410;-85
2023/07/09 03:21:50;;;;;;;0.90;0.88;;;20.00;1.00;;;;;;4814804;29;20118;-85
2023/07/09 03:24:18;;;;;;;1.05;1.05;;;20.00;94.80;;;;;;4829340;29;20060;-85
2023/07/09 03:26:47;;;;;;;1.33;1.23;;;20.00;99.90;;;;;;4860319;29;20123;-85
2023/07/09 03:29:13;;;;;;;1.02;0.98;;;20.00;98.80;;;;;;4829890;29;20057;-85
2023/07/09 03:31:38;;;;;;;1.70;1.35;;;19.90;65.80;;;;;;4844911;29;20403;-86
2023/07/09 03:34:04;;;;;;;1.40;1.30;;;19.80;99.90;;;;;;4829750;29;20064;-85
2023/07/09 03:36:31;;;;;;;0.90;0.88;;;19.80;99.90;;;;;;4829577;29;20277;-85
2023/07/09 03:38:56;;;;;;;1.05;1.05;;;19.70;99.90;;;;;;4844481;29;20533;-85
2023/07/09 03:41:22;;;;;;;1.02;1.00;;;19.70;99.90;;;;;;4859867;29;20103;-85
2023/07/09 03:43:50;;;;;;;1.25;1.15;;;19.70;99.90;;;;;;4814159;29;20136;-85
2023/07/09 03:46:16;;;;;;;1.33;1.23;;;19.60;99.90;;;;;;4859262;29;20108;-85
2023/07/09 03:48:41;;;;;;;1.77;1.20;;;19.60;99.90;;;;;;4859478;29;20140;-85
2023/07/09 03:51:07;;;;;;;1.33;1.20;;;19.60;99.90;;;;;;4844629;29;20057;-86
2023/07/09 03:53:33;;;;;;;1.10;1.00;;;19.60;99.90;;;;;;4843505;29;20089;-84
2023/07/09 03:56:00;;;;;;;1.52;1.42;;;19.60;99.90;;;;;;4829447;29;20147;-84
2023/07/09 03:58:26;;;;;;;0.90;0.80;;;19.60;99.90;;;;;;4843905;29;20376;-85
2023/07/09 04:00:53;;;;;;;1.02;1.02;;;19.60;99.90;;;;;;4828738;29;20049;-85
2023/07/09 04:03:20;;;;;;;1.23;1.13;;;19.60;1.00;;;;;;4828935;29;20045;-85
2023/07/09 04:05:46;;;;;;;1.40;1.30;;;19.60;99.90;;;;;;4829427;29;20118;-85
2023/07/09 04:08:12;;;;;;;1.38;1.13;;;19.60;99.90;;;;;;4844236;29;20041;-93
2023/07/09 04:10:38;;;;;;;1.08;0.98;;;19.60;99.90;;;;;;4859010;29;20056;-85
2023/07/09 04:13:03;;;;;;;2.28;1.55;;;19.70;99.90;;;;;;4829254;29;20053;-84
2023/07/09 04:15:29;;;;;;;1.20;1.10;;;19.70;99.90;;;;;;4828840;29;20042;-85
2023/07/09 04:17:55;;;;;;;0.80;0.80;;;19.70;99.90;;;;;;4829374;29;20061;-85
2023/07/09 04:20:21;;;;;;;1.17;1.08;;;19.70;1.00;;;;;;4813829;29;20128;-85
2023/07/09 04:22:47;;;;;;;1.35;1.25;;;19.80;1.00;;;;;;4843873;29;20053;-85
2023/07/09 04:25:13;;;;;;;1.40;1.20;;;19.80;1.00;;;;;;4829306;29;20112;-85
2023/07/09 04:27:39;;;;;;;1.38;1.13;;;19.90;1.00;;;;;;4828874;29;20045;-85
2023/07/09 04:30:09;;;;;;;1.50;0.65;;;19.80;95.40;;;;;;4829111;29;20182;-85
2023/07/09 04:32:36;;;;;;;0.95;0.95;;;19.90;36.00;;;;;;4843584;29;20186;-85
2023/07/09 04:35:02;;;;;;;3.00;0.95;;;19.90;1.00;;;;;;4828995;29;20487;-85
2023/07/09 04:37:28;;;;;;;0.90;0.90;;;19.90;8.80;;;;;;4828696;29;20061;-85
2023/07/09 04:39:53;;;;;;;1.23;1.13;;;20.00;99.90;;;;;;4843892;29;20045;-85
2023/07/09 04:42:19;;;;;;;0.98;0.90;;;20.00;99.90;;;;;;4858962;29;20049;-86
2023/07/09 04:44:45;;;;;;;1.23;1.13;;;20.10;1.00;;;;;;4813673;29;20121;-85
2023/07/09 04:47:14;;;;;;;1.73;1.20;;;20.10;1.00;;;;;;4844017;29;20097;-85
2023/07/09 04:49:40;;;;;;;0.77;0.77;;;20.10;1.00;;;;;;4843751;29;20053;-85
2023/07/09 04:52:06;;;;;;;0.77;0.70;;;20.20;99.90;;;;;;4844333;29;20049;-86
2023/07/09 04:54:32;;;;;;;;;;;20.30;99.90;;;;;;4813601;29;20061;-85
2023/07/09 04:56:58;;;;;;;1.05;0.93;;;20.40;99.90;;;;;;4843993;29;19971;-85
2023/07/09 04:59:24;;;;;;;1.60;1.45;;;20.40;99.90;;;;;;4859223;29;20485;-85
2023/07/09 05:01:50;;;;;;;1.23;1.13;;;20.50;99.90;;;;;;4843265;29;20058;-85
2023/07/09 05:04:16;;;;;;;1.58;1.40;;;20.60;99.90;;;;;;4828784;29;20064;-85
2023/07/09 05:06:42;;;;;;;1.17;0.98;;;20.70;99.90;;;;;;4858597;29;20060;-85
2023/07/09 05:09:08;;;;;;;1.05;0.90;;;20.80;1.00;;;;;;4843700;29;20076;-85
2023/07/09 05:11:36;;;;;;;1.20;1.10;;;20.90;1.00;;;;;;4858842;29;20406;-84
2023/07/09 05:14:03;;;;;;;1.20;1.10;;;21.10;1.00;;;;;;4828770;29;20057;-85
2023/07/09 05:16:29;;;;;;;1.45;0.90;;;21.30;99.90;;;;;;4828297;29;20101;-85
2023/07/09 05:18:54;;;;;;;;;;;21.70;99.90;;;;;;4832790;29;20052;-85
2023/07/09 05:21:20;;;;;;;1.50;1.20;;;22.00;99.90;;;;;;4862317;29;19928;-92
2023/07/09 05:23:46;;;;;;;1.00;1.00;;;22.10;99.90;;;;;;4831288;29;20101;-85
2023/07/09 05:26:12;;;;;;;1.30;1.20;;;22.10;99.90;;;;;;4831723;29;20145;-85
2023/07/09 05:28:38;;;;;;;1.27;1.13;;;22.20;10.40;;;;;;4831545;29;20426;-85
2023/07/09 05:31:06;;;;;;;1.40;1.13;;;22.20;1.00;;;;;;4831378;29;20054;-84
2023/07/09 05:33:32;;;;;;;1.17;1.08;;;22.10;1.00;;;;;;4862042;29;20510;-85
2023/07/09 05:35:58;;;;;;;1.13;1.02;;;22.00;1.00;;;;;;4846924;29;20081;-84
2023/07/09 05:38:24;;;;;;;1.73;1.45;;;22.00;99.90;;;;;;4831315;29;20487;-91
2023/07/09 05:41:02;;;;;;;1.33;1.15;;;21.90;99.90;;;;;;4831504;29;20057;-84
2023/07/09 05:43:28;;;;;;;1.95;1.42;;;21.90;1.00;;;;;;4846471;29;20053;-85
2023/07/09 05:45:53;;;;;;;0.80;0.80;;;21.90;99.90;;;;;;4861813;29;20049;-84
2023/07/09 05:48:19;;;;;;;1.23;1.13;;;21.90;99.90;;;;;;4816425;29;20050;-85
2023/07/09 05:50:45;;;;;;;1.90;0.90;;;21.90;1.00;;;;;;4861911;29;20046;-85
2023/07/09 05:53:10;;;;;;;1.27;1.17;;;21.90;41.20;;;;;;4831071;29;20053;-84
2023/07/09 05:55:36;;;;;;;0.95;0.90;;;21.90;1.00;;;;;;4846343;29;20053;-85
2023/07/09 05:58:02;;;;;;;1.02;0.85;;;21.90;1.00;;;;;;4816395;29;20049;-84
2023/07/09 06:00:28;;;;;;;;;;;22.00;25.00;;;;;;4863003;29;20050;-86
2023/07/09 06:02:54;;;;;;;1.05;0.90;;;21.90;1.00;;;;;;4830856;29;19931;-84
2023/07/09 06:05:20;;;;;;;1.58;1.48;;;22.00;1.00;;;;;;4846445;29;20101;-84
2023/07/09 06:07:47;;;;;;;0.98;0.98;;;22.00;1.00;;;;;;4861149;29;20088;-85
2023/07/09 06:10:18;;;;;;;1.33;1.20;;;22.00;99.90;;;;;;4861857;29;20060;-84
2023/07/09 06:12:43;;;;;;;1.25;1.13;;;22.10;99.90;;;;;;4829900;29;20057;-85
2023/07/09 06:15:10;;;;;;;1.20;1.10;;;22.20;49.40;;;;;;4861688;29;20045;-85
2023/07/09 06:17:36;;;;;;;1.15;0.90;;;22.30;99.90;;;;;;4816294;29;20522;-85
2023/07/09 06:20:02;;;;;;;1.17;1.08;;;22.30;99.90;;;;;;4832777;29;20149;-85
2023/07/09 06:22:27;;;;;;;1.50;1.15;;;22.40;99.90;;;;;;4830906;29;20046;-90
2023/07/09 06:24:54;;;;;;;1.30;1.30;;;22.60;99.90;;;;;;4815293;29;20494;-83
2023/07/09 06:27:20;;;;;;;2.75;1.27;;;22.70;1.00;;;;;;4847965;29;20459;-85
2023/07/09 06:29:46;;;;;;;2.10;1.42;;;22.80;1.00;;;;;;4845159;29;20049;-85
2023/07/09 06:32:11;;;;;;;2.97;1.60;;;22.80;99.90;;;;;;4830949;29;20091;-86
2023/07/09 06:34:37;;;;;;;2.00;1.48;;;22.90;1.00;;;;;;4861198;29;20106;-84
2023/07/09 06:37:04;;;;;;;1.20;1.13;;;23.00;99.90;;;;;;4845474;29;20053;-84
2023/07/09 06:39:30;;;;;;;1.35;1.25;;;23.20;99.90;;;;;;4860950;29;20110;-93
2023/07/09 06:41:56;;;;;;;1.85;1.75;;;22.70;1.00;;;;;;4830134;29;20065;-86
2023/07/09 06:44:22;;;;;;;1.35;1.25;;;23.60;1.00;;;;;;4829884;29;20406;-86
2023/07/09 06:46:48;;;;;;;1.52;1.30;;;23.70;99.90;;;;;;4831539;29;20057;-88
2023/07/09 06:49:13;;;;;;;1.73;1.60;;;23.80;99.90;;;;;;4830123;29;20053;-85
2023/07/09 06:51:39;;;;;;;2.22;1.38;;;24.00;30.40;;;;;;4814992;29;20399;-86
2023/07/09 06:54:06;;;;;;;1.52;1.20;;;24.10;1.00;;;;;;4844632;29;20411;-90
2023/07/09 06:56:32;;;;;;;2.05;1.33;;;24.20;1.00;;;;;;4860414;29;20060;-89
2023/07/09 06:58:57;;;;;;;1.27;1.17;;;24.20;1.00;;;;;;4829790;29;20049;-88
2023/07/09 07:01:23;;;;;;;;;;;24.20;16.40;;;;;;4829946;29;20410;-90
2023/07/09 07:03:49;;;;;;;1.30;1.10;;;24.30;99.90;;;;;;4844111;29;20018;-95
2023/07/09 07:06:16;;;;;;;1.55;1.33;;;24.30;99.90;;;;;;4829844;29;20045;-88
2023/07/09 07:08:41;;;;;;;1.30;1.15;;;24.40;99.90;;;;;;4829210;29;20465;-87
2023/07/09 07:11:07;;;;;;;1.75;1.50;;;24.50;82.00;;;;;;4814415;29;20089;-86
2023/07/09 07:13:37;;;;;;;;;;;24.60;1.00;;;;;;4844699;29;20352;-88
2023/07/09 07:16:06;;;;;;;1.90;1.25;;;24.70;99.90;;;;;;4844660;29;20388;-88
2023/07/09 07:18:32;;;;;;;1.30;1.20;;;24.90;1.00;;;;;;4829424;29;20046;-89
2023/07/09 07:20:57;;;;;;;1.00;1.00;;;24.70;99.90;;;;;;4828986;29;20053;-89
2023/07/09 07:23:24;;;;;;;;;;;25.00;99.90;;;;;;4829295;29;20049;-89
2023/07/09 07:25:50;;;;;;;1.13;1.02;;;25.10;1.00;;;;;;4858447;29;19930;-90
2023/07/09 07:28:16;;;;;;;1.75;1.55;;;25.20;99.90;;;;;;4828566;29;20041;-89
2023/07/09 07:30:42;;;;;;;0.82;0.82;;;25.30;99.90;;;;;;4828853;29;20060;-89
2023/07/09 07:33:09;;;;;;;1.10;0.95;;;25.40;95.20;;;;;;4829013;29;20046;-89
2023/07/09 07:35:36;;;;;;;1.33;1.15;;;25.30;99.90;;;;;;4843919;29;20046;-90
2023/07/09 07:38:02;;;;;;;1.70;1.13;;;25.30;99.90;;;;;;4828331;29;20057;-91
2023/07/09 07:40:27;;;;;;;;;;;25.50;99.90;;;;;;4829314;29;20056;-89
2023/07/09 07:42:53;;;;;;;0.98;0.98;;;25.50;99.90;;;;;;4843747;29;19924;-89
2023/07/09 07:45:19;;;;;;;1.25;1.15;;;25.60;99.90;;;;;;4828975;29;20057;-88
2023/07/09 07:47:45;;;;;;;;;;;25.70;96.20;;;;;;4829380;29;20088;-90
2023/07/09 07:50:10;;;;;;;1.52;1.23;;;25.80;99.90;;;;;;4828657;29;20395;-89
2023/07/09 07:52:37;;;;;;;1.30;1.10;;;25.80;99.90;;;;;;4828803;29;20060;-93
2023/07/09 07:55:07;;;;;;;0.95;0.95;;;26.00;14.30;;;;;;4827991;29;20080;-90
2023/07/09 07:57:34;;;;;;;0.95;0.95;;;26.10;1.00;;;;;;4843743;29;20046;-89
2023/07/09 08:00:00;;;;;;;1.63;0.90;;;26.20;99.90;;;;;;4843276;29;20113;-89
2023/07/09 08:02:26;;;;;;;;;;;26.30;1.00;;;;;;4859728;29;20567;-90
2023/07/09 08:04:51;;;;;;;1.40;1.02;;;26.40;1.00;;;;;;4843374;29;20277;-90
2023/07/09 08:07:18;;;;;;;;;;;26.40;99.90;;;;;;4859099;29;20045;-90
2023/07/09 08:09:44;;;;;;;1.88;1.50;;;26.50;99.90;;;;;;4843545;29;19932;-92
2023/07/09 08:12:11;;;;;;;1.10;1.10;;;26.60;99.90;;;;;;4828236;29;20037;-91
2023/07/09 08:14:39;;;;;;;1.50;0.98;;;26.70;99.90;;;;;;4843291;29;20563;-89
2023/07/09 08:17:05;;;;;;;1.63;1.27;;;26.80;99.90;;;;;;4842909;29;20181;-91
2023/07/09 08:19:34;;;;;;;0.75;0.75;;;27.00;99.90;;;;;;4828314;29;20049;-91
2023/07/09 08:22:00;;;;;;;1.17;1.13;;;27.00;99.90;;;;;;4828900;29;20473;-90
2023/07/09 08:24:29;;;;;;;1.40;1.30;;;27.00;99.90;;;;;;4828740;29;20052;-92
2023/07/09 08:27:00;;;;;;;2.13;1.15;;;27.00;99.90;;;;;;4828608;29;20514;-90
2023/07/09 08:29:27;;;;;;;1.15;1.05;;;27.10;99.90;;;;;;4828961;29;20150;-92
2023/07/09 08:31:56;;;;;;;1.60;1.50;;;27.10;99.90;;;;;;4828624;29;20109;-92
2023/07/09 08:34:22;;;;;;;;;;;27.10;99.90;;;;;;4828632;29;20053;-92
2023/07/09 08:36:47;;;;;;;0.52;0.52;;;27.10;99.60;;;;;;4828063;29;19924;-93
2023/07/09 08:39:15;;;;;;;;;;;27.00;99.90;;;;;;4828618;29;20053;-84
2023/07/09 08:42:10;;;;;;;;;;;27.10;97.60;;;;;;4844141;29;19946;-91
2023/07/09 08:44:48;;;;;;;0.70;0.70;;;27.10;99.90;;;;;;4816331;29;19969;-89
2023/07/09 08:47:21;;;;;;;2.85;1.10;;;27.20;63.10;;;;;;4843593;29;20148;-86
2023/07/09 08:49:54;;;;;;;1.42;1.08;;;27.30;17.30;;;;;;4858729;29;20096;-87
2023/07/09 08:52:37;;;;;;;1.00;0.93;;;27.30;23.00;;;;;;4859902;29;20110;-88
2023/07/09 08:55:15;;;;;;;1.15;1.15;;;27.50;1.00;;;;;;4830900;29;20414;-88
2023/07/09 08:57:54;;;;;;;2.20;1.00;;;27.50;1.00;;;;;;4846772;29;20096;-91
2023/07/09 09:00:27;;;;;;;1.02;1.00;;;27.60;1.00;;;;;;4863456;29;20050;-88
2023/07/09 09:02:59;;;;;;;0.70;0.70;;;27.60;1.00;;;;;;4846730;29;20455;-90
2023/07/09 09:05:25;;;;;;;1.00;0.85;;;27.70;1.00;;;;;;4862501;29;20041;-91
2023/07/09 09:07:57;;;;;;;1.65;1.50;;;27.80;1.00;;;;;;4831585;29;20104;-90
2023/07/09 09:10:56;;;;;;;1.63;0.68;;;27.90;1.00;;;;;;4847291;29;20505;-90
2023/07/09 09:13:27;;;;;;;1.00;1.00;;;28.00;1.00;;;;;;4846925;29;20569;-91
2023/07/09 09:15:56;;;;;;;0.98;0.98;;;28.10;1.00;;;;;;4862736;29;20521;-90
2023/07/09 09:18:27;;;;;;;1.08;1.02;;;28.10;1.00;;;;;;4862678;29;20545;-88
2023/07/09 09:21:07;;;;;;;1.15;1.02;;;28.20;1.00;;;;;;4846490;29;20104;-88
2023/07/09 09:23:45;;;;;;;1.52;1.48;;;28.30;1.00;;;;;;4846954;29;20407;-87
2023/07/09 09:26:26;;;;;;;0.95;0.95;;;28.40;1.00;;;;;;4830819;29;20566;-88
2023/07/09 09:28:52;;;;;;;1.65;1.55;;;28.50;1.00;;;;;;4839196;29;20058;-87
2023/07/09 09:31:18;;;;;;;1.55;1.23;;;28.50;1.00;;;;;;4831494;29;20136;-91
2023/07/09 09:33:47;;;;;;;2.83;1.13;;;28.60;1.00;;;;;;4816683;29;20099;-92
2023/07/09 09:36:20;;;;;;;1.33;1.05;;;28.70;1.00;;;;;;4846475;29;20278;-92
2023/07/09 09:38:46;;;;;;;1.00;0.80;;;28.60;99.90;;;;;;4846973;29;20041;-93
2023/07/09 09:41:26;;;;;;;1.10;1.10;;;28.70;1.00;;;;;;4832349;29;20046;-94
2023/07/09 09:43:54;;;;;;;0.95;0.70;;;28.80;99.90;;;;;;4854780;29;20076;-91
2023/07/09 09:46:22;;;;;;;1.08;0.85;;;28.80;99.90;;;;;;4830623;29;20122;-93
2023/07/09 09:48:55;;;;;;;0.80;0.80;;;29.00;99.90;;;;;;4846198;29;20057;-92
2023/07/09 09:51:26;;;;;;;1.52;1.35;;;29.00;99.90;;;;;;4846414;29;20196;-92
2023/07/09 09:53:58;;;;;;;1.00;0.95;;;29.10;99.90;;;;;;4846303;29;20076;-91
2023/07/09 09:56:30;;;;;;;0.80;0.80;;;29.10;99.90;;;;;;4828003;29;20065;-92
2023/07/09 09:58:58;;;;;;;0.95;0.75;;;29.20;99.90;;;;;;4827816;29;20491;-92
2023/07/09 10:01:34;;;;;;;1.15;1.10;;;29.30;99.90;;;;;;4843415;29;20057;-92
2023/07/09 10:04:03;;;;;;;1.67;1.30;;;29.20;99.90;;;;;;4827216;29;20073;-93
2023/07/09 10:06:45;;;;;;;1.38;1.27;;;29.30;99.90;;;;;;4827849;29;20081;-92
2023/07/09 10:09:17;;;;;;;1.15;1.10;;;29.30;99.90;;;;;;4842795;29;20213;-92
2023/07/09 10:11:48;;;;;;;0.75;0.70;;;29.40;99.90;;;;;;4843022;29;20403;-90
2023/07/09 10:14:27;;;;;;;1.13;1.05;;;29.50;99.90;;;;;;4843167;29;20499;-92
2023/07/09 10:17:00;;;;;;;1.05;0.90;;;29.60;99.90;;;;;;4843430;29;20060;-92
2023/07/09 10:19:56;;;;;;;1.05;0.93;;;29.60;99.90;;;;;;4846943;29;20056;-87
2023/07/09 10:22:24;;;;;;;1.10;1.10;;;29.70;99.90;;;;;;4833067;29;20140;-88
2023/07/09 10:24:54;;;;;;;1.33;1.00;;;29.70;99.90;;;;;;4844548;29;20045;-91
2023/07/09 10:27:29;;;;;;;1.30;1.20;;;29.80;99.90;;;;;;4827309;29;20515;-91
2023/07/09 10:30:03;;;;;;;0.98;0.88;;;29.90;99.90;;;;;;4842879;29;20513;-92
2023/07/09 10:33:11;;;;;;;0.93;0.93;;;29.90;99.90;;;;;;4827252;29;20049;-91
2023/07/09 10:35:59;;;;;;;1.55;1.25;;;29.40;99.90;;;;;;4839629;29;20149;-91
2023/07/09 10:38:25;;;;;;;1.27;0.95;;;30.10;99.90;;;;;;4802010;29;20062;-92
2023/07/09 10:41:03;;;;;;;0.82;0.80;;;30.20;99.90;;;;;;4827014;29;20432;-95
2023/07/09 10:43:29;;;;;;;3.10;0.68;;;30.20;99.90;;;;;;4841986;29;20495;-91
2023/07/09 10:45:59;;;;;;;1.05;0.80;;;30.30;99.90;;;;;;4842108;29;20056;-91
2023/07/09 10:48:38;;;;;;;1.40;1.30;;;30.40;99.90;;;;;;4826798;29;20069;-91
2023/07/09 10:51:05;;;;;;;1.98;1.10;;;30.40;99.90;;;;;;4842011;29;20064;-91
2023/07/09 10:53:48;;;;;;;0.90;0.90;;;29.60;99.90;;;;;;4826921;29;20187;-92
2023/07/09 10:56:23;;;;;;;1.15;1.15;;;30.40;99.90;;;;;;4858973;29;20057;-91
2023/07/09 10:59:05;;;;;;;1.13;1.02;;;30.40;99.90;;;;;;4830084;29;20275;-90
2023/07/09 11:01:55;;;;;;;1.38;1.05;;;30.50;99.90;;;;;;4845198;29;20498;-91
2023/07/09 11:04:42;;;;;;;1.10;0.90;;;30.50;99.90;;;;;;4860121;29;20057;-91
2023/07/09 11:07:17;;;;;;;1.30;1.00;;;30.60;99.90;;;;;;4844887;29;20057;-90
2023/07/09 11:09:46;;;;;;;1.03;1.03;;;30.60;99.90;;;;;;4829976;29;20049;-90
2023/07/09 11:12:34;;;;;;;0.90;0.88;;;30.60;99.90;;;;;;4844424;29;20060;-91
2023/07/09 11:15:20;;;;;;;0.80;0.80;;;30.80;99.90;;;;;;4829279;29;20041;-91
2023/07/09 11:17:47;;;;;;;1.30;1.20;;;30.80;99.90;;;;;;4829774;29;20093;-93
2023/07/09 11:20:33;;;;;;;1.25;1.15;;;30.80;99.90;;;;;;4829441;29;20057;-94
2023/07/09 11:23:16;;;;;;;1.10;1.00;;;30.80;99.90;;;;;;4829566;29;20042;-89
2023/07/09 11:25:47;;;;;;;0.95;0.75;;;30.90;99.90;;;;;;4829643;29;20400;-89
2023/07/09 11:28:14;;;;;;;1.23;1.02;;;31.00;99.90;;;;;;4829693;29;20045;-89
2023/07/09 11:30:54;;;;;;;1.23;1.10;;;31.10;99.90;;;;;;4829858;29;20080;-89
2023/07/09 11:33:27;;;;;;;0.68;0.65;;;31.10;99.90;;;;;;4814348;29;20045;-89
2023/07/09 11:36:06;;;;;;;1.10;1.00;;;31.10;99.90;;;;;;4859945;29;20524;-90
2023/07/09 11:38:48;;;;;;;3.53;0.95;;;31.30;99.90;;;;;;4860411;29;20049;-90
2023/07/09 11:41:38;;;;;;;1.15;1.05;;;31.40;99.90;;;;;;4814352;29;20466;-90
2023/07/09 11:44:25;;;;;;;0.73;0.73;;;31.40;99.90;;;;;;4844850;29;20084;-93
2023/07/09 11:47:17;;;;;;;0.77;0.77;;;31.40;99.90;;;;;;4844347;29;20467;-93
2023/07/09 11:49:55;;;;;;;1.35;1.15;;;31.50;99.90;;;;;;4829311;29;20057;-86
2023/07/09 11:52:43;;;;;;;0.95;0.70;;;31.50;99.90;;;;;;4844267;29;20509;-90
2023/07/09 11:55:38;;;;;;;0.80;0.80;;;31.60;99.90;;;;;;4832561;29;20067;-91
2023/07/09 11:58:05;;;;;;;0.50;0.50;;;31.70;99.90;;;;;;4859944;29;20061;-90
2023/07/09 12:00:53;;;;;;;0.90;0.70;;;31.70;99.90;;;;;;4813503;29;20410;-91
2023/07/09 12:03:32;;;;;;;1.27;1.10;;;31.80;99.90;;;;;;4828583;29;20053;-89
2023/07/09 12:06:16;;;;;;;1.17;0.80;;;31.90;99.90;;;;;;4847350;29;20096;-96
2023/07/09 12:08:44;;;;;;;0.88;0.88;;;32.00;99.90;;;;;;4844335;29;20057;-90
2023/07/09 12:11:26;;;;;;;0.77;0.70;;;32.00;99.90;;;;;;4829519;29;20525;-96
2023/07/09 12:14:10;;;;;;;1.08;0.98;;;32.10;99.90;;;;;;4859862;29;20127;-89
2023/07/09 12:16:42;;;;;;;1.42;0.98;;;32.10;99.90;;;;;;4844863;29;20049;-87
2023/07/09 12:19:10;;;;;;;0.80;0.80;;;32.10;99.90;;;;;;4828972;29;20053;-86
2023/07/09 12:21:39;;;;;;;0.68;0.68;;;32.20;99.90;;;;;;4844303;29;20398;-88
2023/07/09 12:24:26;;;;;;;0.90;0.82;;;31.60;99.90;;;;;;4858969;29;20056;-87
2023/07/09 12:26:53;;;;;;;1.25;1.15;;;32.30;99.90;;;;;;4844790;29;20052;-87
2023/07/09 12:29:19;;;;;;;1.10;1.00;;;32.30;99.90;;;;;;4832079;29;20049;-86
2023/07/09 12:31:45;;;;;;;0.98;0.80;;;32.30;99.90;;;;;;4832933;29;20056;-86
2023/07/09 12:34:16;;;;;;;0.90;0.57;;;32.40;99.90;;;;;;4863159;29;20060;-86
2023/07/09 12:36:48;;;;;;;1.20;0.95;;;32.40;99.90;;;;;;4848442;29;20053;-86
2023/07/09 12:39:19;;;;;;;0.60;0.60;;;32.50;99.90;;;;;;4863343;29;20050;-86
2023/07/09 12:41:45;;;;;;;0.70;0.70;;;32.60;99.90;;;;;;4848143;29;20049;-86
2023/07/09 12:44:20;;;;;;;0.80;0.80;;;31.40;99.90;;;;;;4832180;29;20075;-87
2023/07/09 12:46:47;;;;;;;0.60;0.60;;;32.60;99.90;;;;;;4832534;29;20049;-86
2023/07/09 12:49:31;;;;;;;0.90;0.80;;;32.50;99.90;;;;;;4817416;29;20050;-86
2023/07/09 12:52:03;;;;;;;0.90;0.90;;;32.50;99.90;;;;;;4832812;29;20128;-86
2023/07/09 12:54:30;;;;;;;0.60;0.60;;;32.50;99.90;;;;;;4847237;29;20065;-86
2023/07/09 12:56:59;;;;;;;1.13;1.00;;;32.60;99.90;;;;;;4863054;29;20078;-86
2023/07/09 12:59:27;;;;;;;0.65;0.65;;;32.60;99.90;;;;;;4832121;29;20049;-86
2023/07/09 13:02:03;;;;;;;0.73;0.70;;;32.60;99.90;;;;;;4847654;29;20091;-86
2023/07/09 13:04:36;;;;;;;1.00;0.90;;;32.60;99.90;;;;;;4831932;29;20057;-87
2023/07/09 13:07:02;;;;;;;1.02;0.70;;;32.50;99.90;;;;;;4832628;29;20477;-86
2023/07/09 13:09:28;;;;;;;0.88;0.70;;;32.50;99.90;;;;;;4846930;29;20053;-86
2023/07/09 13:11:55;;;;;;;0.80;0.80;;;32.50;99.90;;;;;;4832048;29;20394;-86
2023/07/09 13:14:24;;;;;;;0.80;0.80;;;32.50;99.90;;;;;;4816881;29;20106;-87
2023/07/09 13:16:50;;;;;;;0.60;0.60;;;32.40;99.90;;;;;;4847255;29;20052;-86
2023/07/09 13:19:17;;;;;;;0.40;0.40;;;32.20;99.90;;;;;;4847048;29;20050;-86
2023/07/09 13:21:44;;;;;;;1.65;1.20;;;32.10;99.90;;;;;;4831674;29;20061;-86